sensor_id;sensor_type;location;lat;lon;timestamp;temperature;humidity
59098;DHT22;44883;52.760;6.610;2022-08-24T00:00:53;19.90;99.90
59098;DHT22;44883;52.760;6.610;2022-08-24T00:03:19;19.90;99.90
59098;DHT22;44883;52.760;6.610;2022-08-24T00:05:44;19.90;99.90
59098;DHT22;44883;52.760;6.610;2022-08-24T00:08:10;19.80;99.90
59098;DHT22;44883;52.760;6.610;2022-08-24T00:10:36;19.70;99.90
59098;DHT22;44883;52.760;6.610;2022-08-24T00:13:02;19.70;99.90
59098;DHT22;44883;52.760;6.610;2022-08-24T00:15:28;19.70;99.90
59098;DHT22;44883;52.760;6.610;2022-08-24T00:17:53;19.70;99.90
59098;DHT22;44883;52.760;6.610;2022-08-24T00:20:19;19.60;99.90
59098;DHT22;44883;52.760;6.610;2022-08-24T00:22:44;19.50;99.90
59098;DHT22;44883;52.760;6.610;2022-08-24T00:25:11;19.40;99.90
59098;DHT22;44883;52.760;6.610;2022-08-24T00:27:38;19.30;99.90
59098;DHT22;44883;52.760;6.610;2022-08-24T00:30:09;19.30;99.90
59098;DHT22;44883;52.760;6.610;2022-08-24T00:32:36;19.30;99.90
59098;DHT22;44883;52.760;6.610;2022-08-24T00:35:04;19.40;99.90
59098;DHT22;44883;52.760;6.610;2022-08-24T00:37:30;19.40;99.90
59098;DHT22;44883;52.760;6.610;2022-08-24T00:39:57;19.40;99.90
59098;DHT22;44883;52.760;6.610;2022-08-24T00:42:24;19.40;99.90
59098;DHT22;44883;52.760;6.610;2022-08-24T00:44:50;19.30;99.90
59098;DHT22;44883;52.760;6.610;2022-08-24T00:47:21;19.30;99.90
59098;DHT22;44883;52.760;6.610;2022-08-24T00:49:58;19.30;99.90
59098;DHT22;44883;52.760;6.610;2022-08-24T00:52:29;19.30;99.90
59098;DHT22;44883;52.760;6.610;2022-08-24T00:54:59;19.20;99.90
59098;DHT22;44883;52.760;6.610;2022-08-24T00:57:35;19.20;99.90
59098;DHT22;44883;52.760;6.610;2022-08-24T01:00:13;19.20;99.90
59098;DHT22;44883;52.760;6.610;2022-08-24T01:02:43;19.20;99.90
59098;DHT22;44883;52.760;6.610;2022-08-24T01:05:10;19.10;99.90
59098;DHT22;44883;52.760;6.610;2022-08-24T01:07:38;19.10;99.90
59098;DHT22;44883;52.760;6.610;2022-08-24T01:10:08;19.10;99.90
59098;DHT22;44883;52.760;6.610;2022-08-24T01:12:37;19.00;99.90
59098;DHT22;44883;52.760;6.610;2022-08-24T01:15:06;19.00;99.90
59098;DHT22;44883;52.760;6.610;2022-08-24T01:17:32;19.00;99.90
59098;DHT22;44883;52.760;6.610;2022-08-24T01:20:16;19.00;99.90
59098;DHT22;44883;52.760;6.610;2022-08-24T01:25:28;18.90;99.90
59098;DHT22;44883;52.760;6.610;2022-08-24T01:27:56;18.90;99.90
59098;DHT22;44883;52.760;6.610;2022-08-24T01:30:24;18.80;99.90
59098;DHT22;44883;52.760;6.610;2022-08-24T01:32:59;18.80;99.90
59098;DHT22;44883;52.760;6.610;2022-08-24T01:35:26;18.70;99.90
59098;DHT22;44883;52.760;6.610;2022-08-24T01:37:54;18.60;99.90
59098;DHT22;44883;52.760;6.610;2022-08-24T01:40:20;18.60;99.90
59098;DHT22;44883;52.760;6.610;2022-08-24T01:42:50;18.50;99.90
59098;DHT22;44883;52.760;6.610;2022-08-24T01:45:17;18.50;99.90
59098;DHT22;44883;52.760;6.610;2022-08-24T01:47:43;18.40;99.90
59098;DHT22;44883;52.760;6.610;2022-08-24T01:50:09;18.40;99.90
59098;DHT22;44883;52.760;6.610;2022-08-24T01:52:38;18.40;99.90
59098;DHT22;44883;52.760;6.610;2022-08-24T01:55:09;18.40;99.90
59098;DHT22;44883;52.760;6.610;2022-08-24T01:57:35;18.40;99.90
59098;DHT22;44883;52.760;6.610;2022-08-24T02:00:04;18.40;99.90
59098;DHT22;44883;52.760;6.610;2022-08-24T02:02:31;18.30;99.90
59098;DHT22;44883;52.760;6.610;2022-08-24T02:04:57;18.30;99.90
59098;DHT22;44883;52.760;6.610;2022-08-24T02:07:22;18.30;99.90
59098;DHT22;44883;52.760;6.610;2022-08-24T02:09:49;18.20;99.90
59098;DHT22;44883;52.760;6.610;2022-08-24T02:12:15;18.30;99.90
59098;DHT22;44883;52.760;6.610;2022-08-24T02:14:41;18.20;99.90
59098;DHT22;44883;52.760;6.610;2022-08-24T02:17:08;18.20;99.90
59098;DHT22;44883;52.760;6.610;2022-08-24T02:19:34;18.10;99.90
59098;DHT22;44883;52.760;6.610;2022-08-24T02:22:00;18.10;99.90
59098;DHT22;44883;52.760;6.610;2022-08-24T02:24:29;18.00;99.90
59098;DHT22;44883;52.760;6.610;2022-08-24T02:26:55;17.90;99.90
59098;DHT22;44883;52.760;6.610;2022-08-24T02:29:21;17.80;99.90
59098;DHT22;44883;52.760;6.610;2022-08-24T02:31:46;17.70;99.90
59098;DHT22;44883;52.760;6.610;2022-08-24T02:34:12;17.70;99.90
59098;DHT22;44883;52.760;6.610;2022-08-24T02:36:38;17.60;99.90
59098;DHT22;44883;52.760;6.610;2022-08-24T02:39:05;17.60;99.90
59098;DHT22;44883;52.760;6.610;2022-08-24T02:41:31;17.60;99.90
59098;DHT22;44883;52.760;6.610;2022-08-24T02:43:57;17.60;99.90
59098;DHT22;44883;52.760;6.610;2022-08-24T02:46:25;17.60;99.90
59098;DHT22;44883;52.760;6.610;2022-08-24T02:48:52;17.60;99.90
59098;DHT22;44883;52.760;6.610;2022-08-24T02:51:23;17.60;99.90
59098;DHT22;44883;52.760;6.610;2022-08-24T02:53:49;17.60;99.90
59098;DHT22;44883;52.760;6.610;2022-08-24T02:56:15;17.60;99.90
59098;DHT22;44883;52.760;6.610;2022-08-24T02:58:42;17.60;99.90
59098;DHT22;44883;52.760;6.610;2022-08-24T03:01:10;17.60;99.90
59098;DHT22;44883;52.760;6.610;2022-08-24T03:03:35;17.60;99.90
59098;DHT22;44883;52.760;6.610;2022-08-24T03:06:01;17.60;99.90
59098;DHT22;44883;52.760;6.610;2022-08-24T03:08:27;17.60;99.90
59098;DHT22;44883;52.760;6.610;2022-08-24T03:10:53;17.50;99.90
59098;DHT22;44883;52.760;6.610;2022-08-24T03:13:19;17.50;99.90
59098;DHT22;44883;52.760;6.610;2022-08-24T03:15:44;17.50;99.90
59098;DHT22;44883;52.760;6.610;2022-08-24T03:18:11;17.40;99.90
59098;DHT22;44883;52.760;6.610;2022-08-24T03:20:37;17.40;99.90
59098;DHT22;44883;52.760;6.610;2022-08-24T03:23:03;17.30;99.90
59098;DHT22;44883;52.760;6.610;2022-08-24T03:25:29;17.30;99.90
59098;DHT22;44883;52.760;6.610;2022-08-24T03:27:55;17.30;99.90
59098;DHT22;44883;52.760;6.610;2022-08-24T03:30:21;17.30;99.90
59098;DHT22;44883;52.760;6.610;2022-08-24T03:32:47;17.30;99.90
59098;DHT22;44883;52.760;6.610;2022-08-24T03:35:13;17.30;99.90
59098;DHT22;44883;52.760;6.610;2022-08-24T03:37:40;17.20;99.90
59098;DHT22;44883;52.760;6.610;2022-08-24T03:40:07;17.30;99.90
59098;DHT22;44883;52.760;6.610;2022-08-24T03:42:33;17.30;99.90
59098;DHT22;44883;52.760;6.610;2022-08-24T03:44:59;17.30;99.90
59098;DHT22;44883;52.760;6.610;2022-08-24T03:47:24;17.20;99.90
59098;DHT22;44883;52.760;6.610;2022-08-24T03:49:50;17.20;99.90
59098;DHT22;44883;52.760;6.610;2022-08-24T03:52:16;17.20;99.90
59098;DHT22;44883;52.760;6.610;2022-08-24T03:54:41;17.20;99.90
59098;DHT22;44883;52.760;6.610;2022-08-24T03:57:07;17.20;99.90
59098;DHT22;44883;52.760;6.610;2022-08-24T03:59:32;17.20;99.90
59098;DHT22;44883;52.760;6.610;2022-08-24T04:01:58;17.10;99.90
59098;DHT22;44883;52.760;6.610;2022-08-24T04:04:25;17.10;99.90
59098;DHT22;44883;52.760;6.610;2022-08-24T04:06:51;17.10;99.90
59098;DHT22;44883;52.760;6.610;2022-08-24T04:09:17;17.10;99.90
59098;DHT22;44883;52.760;6.610;2022-08-24T04:11:43;17.00;99.90
59098;DHT22;44883;52.760;6.610;2022-08-24T04:14:10;17.00;99.90
59098;DHT22;44883;52.760;6.610;2022-08-24T04:16:36;17.00;99.90
59098;DHT22;44883;52.760;6.610;2022-08-24T04:19:02;17.00;99.90
59098;DHT22;44883;52.760;6.610;2022-08-24T04:21:33;17.00;99.90
59098;DHT22;44883;52.760;6.610;2022-08-24T04:23:59;17.00;99.90
59098;DHT22;44883;52.760;6.610;2022-08-24T04:26:28;17.00;99.90
59098;DHT22;44883;52.760;6.610;2022-08-24T04:28:54;17.00;99.90
59098;DHT22;44883;52.760;6.610;2022-08-24T04:31:21;17.00;99.90
59098;DHT22;44883;52.760;6.610;2022-08-24T04:33:47;17.00;99.90
59098;DHT22;44883;52.760;6.610;2022-08-24T04:36:18;17.00;99.90
59098;DHT22;44883;52.760;6.610;2022-08-24T04:38:44;17.00;99.90
59098;DHT22;44883;52.760;6.610;2022-08-24T04:41:12;17.00;99.90
59098;DHT22;44883;52.760;6.610;2022-08-24T04:43:39;16.90;99.90
59098;DHT22;44883;52.760;6.610;2022-08-24T04:46:10;16.90;99.90
59098;DHT22;44883;52.760;6.610;2022-08-24T04:48:36;16.90;99.90
59098;DHT22;44883;52.760;6.610;2022-08-24T04:51:03;17.00;99.90
59098;DHT22;44883;52.760;6.610;2022-08-24T04:53:30;17.00;99.90
59098;DHT22;44883;52.760;6.610;2022-08-24T04:55:56;17.00;99.90
59098;DHT22;44883;52.760;6.610;2022-08-24T04:58:22;17.10;99.90
59098;DHT22;44883;52.760;6.610;2022-08-24T05:00:48;17.00;99.90
59098;DHT22;44883;52.760;6.610;2022-08-24T05:03:13;17.00;99.90
59098;DHT22;44883;52.760;6.610;2022-08-24T05:05:47;17.10;99.90
59098;DHT22;44883;52.760;6.610;2022-08-24T05:08:14;17.20;99.90
59098;DHT22;44883;52.760;6.610;2022-08-24T05:10:42;17.30;99.90
59098;DHT22;44883;52.760;6.610;2022-08-24T05:13:09;17.40;99.90
59098;DHT22;44883;52.760;6.610;2022-08-24T05:15:40;17.50;99.90
59098;DHT22;44883;52.760;6.610;2022-08-24T05:18:06;17.60;99.90
59098;DHT22;44883;52.760;6.610;2022-08-24T05:20:32;17.70;99.90
59098;DHT22;44883;52.760;6.610;2022-08-24T05:22:58;17.90;99.90
59098;DHT22;44883;52.760;6.610;2022-08-24T05:25:23;18.20;99.90
59098;DHT22;44883;52.760;6.610;2022-08-24T05:27:49;18.80;99.90
59098;DHT22;44883;52.760;6.610;2022-08-24T05:30:16;19.40;99.90
59098;DHT22;44883;52.760;6.610;2022-08-24T05:32:42;20.10;99.90
59098;DHT22;44883;52.760;6.610;2022-08-24T05:35:07;20.70;99.90
59098;DHT22;44883;52.760;6.610;2022-08-24T05:37:37;21.10;99.00
59098;DHT22;44883;52.760;6.610;2022-08-24T05:40:05;21.50;98.30
59098;DHT22;44883;52.760;6.610;2022-08-24T05:42:32;22.00;97.20
59098;DHT22;44883;52.760;6.610;2022-08-24T05:44:57;22.70;95.60
59098;DHT22;44883;52.760;6.610;2022-08-24T05:47:23;23.30;93.70
59098;DHT22;44883;52.760;6.610;2022-08-24T05:49:49;23.90;92.20
59098;DHT22;44883;52.760;6.610;2022-08-24T05:52:17;24.40;91.10
59098;DHT22;44883;52.760;6.610;2022-08-24T05:54:43;24.90;90.10
59098;DHT22;44883;52.760;6.610;2022-08-24T05:57:09;25.50;86.80
59098;DHT22;44883;52.760;6.610;2022-08-24T05:59:35;25.80;83.90
59098;DHT22;44883;52.760;6.610;2022-08-24T06:02:00;26.40;81.10
59098;DHT22;44883;52.760;6.610;2022-08-24T06:04:26;26.90;77.10
59098;DHT22;44883;52.760;6.610;2022-08-24T06:06:53;27.30;73.50
59098;DHT22;44883;52.760;6.610;2022-08-24T06:09:18;27.80;70.00
59098;DHT22;44883;52.760;6.610;2022-08-24T06:11:45;28.30;66.60
59098;DHT22;44883;52.760;6.610;2022-08-24T06:14:14;28.80;64.10
59098;DHT22;44883;52.760;6.610;2022-08-24T06:16:42;29.20;61.60
59098;DHT22;44883;52.760;6.610;2022-08-24T06:19:10;29.70;60.00
59098;DHT22;44883;52.760;6.610;2022-08-24T06:21:38;30.00;57.90
59098;DHT22;44883;52.760;6.610;2022-08-24T06:24:05;30.40;56.60
59098;DHT22;44883;52.760;6.610;2022-08-24T06:26:31;30.70;55.40
59098;DHT22;44883;52.760;6.610;2022-08-24T06:29:16;30.90;54.30
59098;DHT22;44883;52.760;6.610;2022-08-24T06:31:44;31.20;53.40
59098;DHT22;44883;52.760;6.610;2022-08-24T06:34:11;31.60;52.40
59098;DHT22;44883;52.760;6.610;2022-08-24T06:36:37;31.90;52.60
59098;DHT22;44883;52.760;6.610;2022-08-24T06:39:03;32.30;51.00
59098;DHT22;44883;52.760;6.610;2022-08-24T06:41:29;32.60;50.20
59098;DHT22;44883;52.760;6.610;2022-08-24T06:43:55;32.80;49.90
59098;DHT22;44883;52.760;6.610;2022-08-24T06:46:21;33.00;49.30
59098;DHT22;44883;52.760;6.610;2022-08-24T06:48:47;33.20;48.80
59098;DHT22;44883;52.760;6.610;2022-08-24T06:51:15;33.50;48.50
59098;DHT22;44883;52.760;6.610;2022-08-24T06:53:41;33.70;48.00
59098;DHT22;44883;52.760;6.610;2022-08-24T06:56:07;34.00;47.30
59098;DHT22;44883;52.760;6.610;2022-08-24T06:58:33;34.10;46.60
59098;DHT22;44883;52.760;6.610;2022-08-24T07:01:14;34.50;46.00
59098;DHT22;44883;52.760;6.610;2022-08-24T07:03:40;34.60;45.20
59098;DHT22;44883;52.760;6.610;2022-08-24T07:06:07;34.80;45.40
59098;DHT22;44883;52.760;6.610;2022-08-24T07:08:33;34.90;44.60
59098;DHT22;44883;52.760;6.610;2022-08-24T07:10:58;35.00;44.80
59098;DHT22;44883;52.760;6.610;2022-08-24T07:13:24;35.10;44.50
59098;DHT22;44883;52.760;6.610;2022-08-24T07:15:51;35.30;44.50
59098;DHT22;44883;52.760;6.610;2022-08-24T07:18:18;35.30;43.90
59098;DHT22;44883;52.760;6.610;2022-08-24T07:20:45;35.40;43.70
59098;DHT22;44883;52.760;6.610;2022-08-24T07:23:11;35.40;43.80
59098;DHT22;44883;52.760;6.610;2022-08-24T07:25:42;35.50;43.10
59098;DHT22;44883;52.760;6.610;2022-08-24T07:28:08;35.00;43.30
59098;DHT22;44883;52.760;6.610;2022-08-24T07:30:34;34.80;43.60
59098;DHT22;44883;52.760;6.610;2022-08-24T07:32:59;34.40;44.50
59098;DHT22;44883;52.760;6.610;2022-08-24T07:35:26;34.40;46.10
59098;DHT22;44883;52.760;6.610;2022-08-24T07:37:53;34.60;45.80
59098;DHT22;44883;52.760;6.610;2022-08-24T07:40:20;35.10;45.70
59098;DHT22;44883;52.760;6.610;2022-08-24T07:42:50;35.50;43.90
59098;DHT22;44883;52.760;6.610;2022-08-24T07:45:16;35.60;42.70
59098;DHT22;44883;52.760;6.610;2022-08-24T07:47:43;35.20;43.40
59098;DHT22;44883;52.760;6.610;2022-08-24T07:50:11;35.20;44.10
59098;DHT22;44883;52.760;6.610;2022-08-24T07:52:37;35.30;44.50
59098;DHT22;44883;52.760;6.610;2022-08-24T07:55:04;35.40;44.90
59098;DHT22;44883;52.760;6.610;2022-08-24T07:57:30;35.90;42.30
59098;DHT22;44883;52.760;6.610;2022-08-24T07:59:58;35.60;42.30
59098;DHT22;44883;52.760;6.610;2022-08-24T08:02:24;35.40;42.50
59098;DHT22;44883;52.760;6.610;2022-08-24T08:04:50;35.30;44.30
59098;DHT22;44883;52.760;6.610;2022-08-24T08:07:18;35.80;44.30
59098;DHT22;44883;52.760;6.610;2022-08-24T08:09:44;36.10;43.60
59098;DHT22;44883;52.760;6.610;2022-08-24T08:12:09;36.10;41.60
59098;DHT22;44883;52.760;6.610;2022-08-24T08:14:35;36.20;42.50
59098;DHT22;44883;52.760;6.610;2022-08-24T08:17:01;36.50;42.30
59098;DHT22;44883;52.760;6.610;2022-08-24T08:19:27;36.80;42.70
59098;DHT22;44883;52.760;6.610;2022-08-24T08:21:53;37.10;41.00
59098;DHT22;44883;52.760;6.610;2022-08-24T08:24:38;37.00;40.00
59098;DHT22;44883;52.760;6.610;2022-08-24T08:27:04;37.00;40.60
59098;DHT22;44883;52.760;6.610;2022-08-24T08:29:32;37.20;40.70
59098;DHT22;44883;52.760;6.610;2022-08-24T08:31:58;37.50;40.50
59098;DHT22;44883;52.760;6.610;2022-08-24T08:34:23;37.50;39.00
59098;DHT22;44883;52.760;6.610;2022-08-24T08:36:50;37.70;39.30
59098;DHT22;44883;52.760;6.610;2022-08-24T08:39:17;37.50;39.10
59098;DHT22;44883;52.760;6.610;2022-08-24T08:54:12;37.70;36.90
59098;DHT22;44883;52.760;6.610;2022-08-24T08:56:48;37.80;35.90
59098;DHT22;44883;52.760;6.610;2022-08-24T08:59:34;38.20;38.50
59098;DHT22;44883;52.760;6.610;2022-08-24T09:08:18;37.30;36.70
59098;DHT22;44883;52.760;6.610;2022-08-24T09:20:00;37.00;36.60
59098;DHT22;44883;52.760;6.610;2022-08-24T09:22:37;36.40;39.60
59098;DHT22;44883;52.760;6.610;2022-08-24T09:28:00;36.80;39.90
59098;DHT22;44883;52.760;6.610;2022-08-24T09:33:27;37.30;37.90
59098;DHT22;44883;52.760;6.610;2022-08-24T09:36:08;37.40;38.60
59098;DHT22;44883;52.760;6.610;2022-08-24T09:44:40;37.90;36.40
59098;DHT22;44883;52.760;6.610;2022-08-24T09:47:21;37.50;36.90
59098;DHT22;44883;52.760;6.610;2022-08-24T10:04:43;37.20;37.20
59098;DHT22;44883;52.760;6.610;2022-08-24T10:07:22;37.30;40.00
59098;DHT22;44883;52.760;6.610;2022-08-24T10:10:16;37.60;37.80
59098;DHT22;44883;52.760;6.610;2022-08-24T10:13:07;37.70;39.00
59098;DHT22;44883;52.760;6.610;2022-08-24T10:24:10;37.90;38.10
59098;DHT22;44883;52.760;6.610;2022-08-24T10:35:04;38.00;36.40
59098;DHT22;44883;52.760;6.610;2022-08-24T10:52:01;37.40;38.00
59098;DHT22;44883;52.760;6.610;2022-08-24T10:54:34;37.20;37.60
59098;DHT22;44883;52.760;6.610;2022-08-24T10:57:26;36.90;36.40
59098;DHT22;44883;52.760;6.610;2022-08-24T11:00:10;36.80;36.10
59098;DHT22;44883;52.760;6.610;2022-08-24T11:02:40;36.20;36.60
59098;DHT22;44883;52.760;6.610;2022-08-24T11:05:09;35.80;39.30
59098;DHT22;44883;52.760;6.610;2022-08-24T11:07:36;35.60;40.80
59098;DHT22;44883;52.760;6.610;2022-08-24T11:10:08;35.40;40.90
59098;DHT22;44883;52.760;6.610;2022-08-24T11:12:42;35.20;40.70
59098;DHT22;44883;52.760;6.610;2022-08-24T11:18:02;34.60;41.80
59098;DHT22;44883;52.760;6.610;2022-08-24T11:20:29;34.30;41.70
59098;DHT22;44883;52.760;6.610;2022-08-24T11:23:07;34.10;41.90
59098;DHT22;44883;52.760;6.610;2022-08-24T11:25:38;34.00;43.30
59098;DHT22;44883;52.760;6.610;2022-08-24T11:28:27;33.80;42.90
59098;DHT22;44883;52.760;6.610;2022-08-24T11:30:54;33.60;44.10
59098;DHT22;44883;52.760;6.610;2022-08-24T11:33:33;33.40;44.30
59098;DHT22;44883;52.760;6.610;2022-08-24T11:36:00;33.20;42.90
59098;DHT22;44883;52.760;6.610;2022-08-24T11:38:29;32.90;43.60
59098;DHT22;44883;52.760;6.610;2022-08-24T11:41:15;32.70;45.00
59098;DHT22;44883;52.760;6.610;2022-08-24T11:44:07;32.60;45.00
59098;DHT22;44883;52.760;6.610;2022-08-24T11:46:44;32.30;45.20
59098;DHT22;44883;52.760;6.610;2022-08-24T11:58:14;31.70;46.10
59098;DHT22;44883;52.760;6.610;2022-08-24T12:00:57;31.70;46.90
59098;DHT22;44883;52.760;6.610;2022-08-24T12:06:38;31.40;46.80
59098;DHT22;44883;52.760;6.610;2022-08-24T12:12:50;31.30;47.50
59098;DHT22;44883;52.760;6.610;2022-08-24T12:14:58;31.20;47.50
59098;DHT22;44883;52.760;6.610;2022-08-24T12:17:37;31.30;47.80
59098;DHT22;44883;52.760;6.610;2022-08-24T12:20:23;31.20;47.50
59098;DHT22;44883;52.760;6.610;2022-08-24T12:22:54;31.20;47.70
59098;DHT22;44883;52.760;6.610;2022-08-24T12:25:21;31.30;48.50
59098;DHT22;44883;52.760;6.610;2022-08-24T12:28:06;31.20;47.00
59098;DHT22;44883;52.760;6.610;2022-08-24T12:30:35;31.20;48.00
59098;DHT22;44883;52.760;6.610;2022-08-24T12:33:08;31.30;48.10
59098;DHT22;44883;52.760;6.610;2022-08-24T12:35:45;31.20;47.50
59098;DHT22;44883;52.760;6.610;2022-08-24T12:40:52;31.30;47.70
59098;DHT22;44883;52.760;6.610;2022-08-24T12:43:39;31.30;47.60
59098;DHT22;44883;52.760;6.610;2022-08-24T12:46:07;31.30;47.00
59098;DHT22;44883;52.760;6.610;2022-08-24T12:48:46;31.30;46.80
59098;DHT22;44883;52.760;6.610;2022-08-24T13:00:00;31.20;46.10
59098;DHT22;44883;52.760;6.610;2022-08-24T13:02:59;31.20;45.80
59098;DHT22;44883;52.760;6.610;2022-08-24T13:05:47;31.10;45.60
59098;DHT22;44883;52.760;6.610;2022-08-24T13:08:21;30.90;45.50
59098;DHT22;44883;52.760;6.610;2022-08-24T13:11:09;30.60;45.60
59098;DHT22;44883;52.760;6.610;2022-08-24T13:14:03;30.50;48.00
59098;DHT22;44883;52.760;6.610;2022-08-24T13:29:40;31.10;48.90
59098;DHT22;44883;52.760;6.610;2022-08-24T13:32:10;31.30;47.30
59098;DHT22;44883;52.760;6.610;2022-08-24T13:34:44;31.50;47.10
59098;DHT22;44883;52.760;6.610;2022-08-24T13:37:17;31.70;47.50
59098;DHT22;44883;52.760;6.610;2022-08-24T13:40:13;31.90;46.30
59098;DHT22;44883;52.760;6.610;2022-08-24T13:42:49;32.20;46.00
59098;DHT22;44883;52.760;6.610;2022-08-24T13:51:24;32.50;44.60
59098;DHT22;44883;52.760;6.610;2022-08-24T13:59:56;32.50;41.40
59098;DHT22;44883;52.760;6.610;2022-08-24T14:05:32;32.30;43.20
59098;DHT22;44883;52.760;6.610;2022-08-24T14:08:24;32.20;43.30
59098;DHT22;44883;52.760;6.610;2022-08-24T14:14:00;31.80;42.90
59098;DHT22;44883;52.760;6.610;2022-08-24T14:16:40;31.80;42.40
59098;DHT22;44883;52.760;6.610;2022-08-24T14:19:48;31.60;43.30
59098;DHT22;44883;52.760;6.610;2022-08-24T14:22:36;31.60;44.60
59098;DHT22;44883;52.760;6.610;2022-08-24T14:46:28;31.50;42.40
59098;DHT22;44883;52.760;6.610;2022-08-24T14:49:14;31.60;42.10
59098;DHT22;44883;52.760;6.610;2022-08-24T14:54:41;31.30;42.00
59098;DHT22;44883;52.760;6.610;2022-08-24T14:57:35;31.20;42.50
59098;DHT22;44883;52.760;6.610;2022-08-24T15:00:09;31.30;44.70
59098;DHT22;44883;52.760;6.610;2022-08-24T15:08:06;31.50;43.30
59098;DHT22;44883;52.760;6.610;2022-08-24T15:13:23;31.70;42.60
59098;DHT22;44883;52.760;6.610;2022-08-24T15:16:14;31.70;41.50
59098;DHT22;44883;52.760;6.610;2022-08-24T15:18:47;31.50;41.50
59098;DHT22;44883;52.760;6.610;2022-08-24T15:21:41;31.40;41.80
59098;DHT22;44883;52.760;6.610;2022-08-24T15:24:19;31.40;42.10
59098;DHT22;44883;52.760;6.610;2022-08-24T15:29:55;31.40;44.30
59098;DHT22;44883;52.760;6.610;2022-08-24T15:32:23;31.40;44.70
59098;DHT22;44883;52.760;6.610;2022-08-24T15:34:54;31.50;44.60
59098;DHT22;44883;52.760;6.610;2022-08-24T15:37:35;31.60;44.70
59098;DHT22;44883;52.760;6.610;2022-08-24T15:40:03;31.60;44.60
59098;DHT22;44883;52.760;6.610;2022-08-24T15:42:31;31.60;44.40
59098;DHT22;44883;52.760;6.610;2022-08-24T15:45:03;31.60;44.00
59098;DHT22;44883;52.760;6.610;2022-08-24T15:47:32;31.60;44.00
59098;DHT22;44883;52.760;6.610;2022-08-24T15:50:18;31.60;44.70
59098;DHT22;44883;52.760;6.610;2022-08-24T15:52:49;31.50;44.80
59098;DHT22;44883;52.760;6.610;2022-08-24T15:55:36;31.40;44.10
59098;DHT22;44883;52.760;6.610;2022-08-24T15:58:31;31.30;44.80
59098;DHT22;44883;52.760;6.610;2022-08-24T16:01:19;31.10;43.60
59098;DHT22;44883;52.760;6.610;2022-08-24T16:04:09;31.00;44.30
59098;DHT22;44883;52.760;6.610;2022-08-24T16:06:44;30.80;44.20
59098;DHT22;44883;52.760;6.610;2022-08-24T16:11:43;30.70;45.80
59098;DHT22;44883;52.760;6.610;2022-08-24T16:17:01;30.70;46.00
59098;DHT22;44883;52.760;6.610;2022-08-24T16:19:52;30.70;46.20
59098;DHT22;44883;52.760;6.610;2022-08-24T16:22:29;30.70;46.90
59098;DHT22;44883;52.760;6.610;2022-08-24T16:25:22;30.70;47.40
59098;DHT22;44883;52.760;6.610;2022-08-24T16:28:11;30.60;46.80
59098;DHT22;44883;52.760;6.610;2022-08-24T16:30:44;30.50;46.70
59098;DHT22;44883;52.760;6.610;2022-08-24T16:36:02;30.20;44.90
59098;DHT22;44883;52.760;6.610;2022-08-24T16:38:28;30.10;45.70
59098;DHT22;44883;52.760;6.610;2022-08-24T16:40:59;29.90;46.30
59098;DHT22;44883;52.760;6.610;2022-08-24T16:43:25;29.70;47.40
59098;DHT22;44883;52.760;6.610;2022-08-24T16:45:52;29.50;48.20
59098;DHT22;44883;52.760;6.610;2022-08-24T16:48:18;29.40;49.30
59098;DHT22;44883;52.760;6.610;2022-08-24T16:50:45;29.30;50.30
59098;DHT22;44883;52.760;6.610;2022-08-24T16:53:11;29.20;50.00
59098;DHT22;44883;52.760;6.610;2022-08-24T16:55:36;29.10;50.00
59098;DHT22;44883;52.760;6.610;2022-08-24T16:58:03;29.00;51.20
59098;DHT22;44883;52.760;6.610;2022-08-24T17:00:29;28.90;51.80
59098;DHT22;44883;52.760;6.610;2022-08-24T17:02:55;28.80;52.60
59098;DHT22;44883;52.760;6.610;2022-08-24T17:05:21;28.80;52.50
59098;DHT22;44883;52.760;6.610;2022-08-24T17:07:46;28.70;52.90
59098;DHT22;44883;52.760;6.610;2022-08-24T17:10:15;28.70;52.90
59098;DHT22;44883;52.760;6.610;2022-08-24T17:12:41;28.70;56.10
59098;DHT22;44883;52.760;6.610;2022-08-24T17:15:08;28.70;61.70
59098;DHT22;44883;52.760;6.610;2022-08-24T17:17:36;28.60;58.40
59098;DHT22;44883;52.760;6.610;2022-08-24T17:20:06;28.60;57.80
59098;DHT22;44883;52.760;6.610;2022-08-24T17:22:34;28.60;59.30
59098;DHT22;44883;52.760;6.610;2022-08-24T17:25:00;28.60;61.80
59098;DHT22;44883;52.760;6.610;2022-08-24T17:27:29;28.60;63.50
59098;DHT22;44883;52.760;6.610;2022-08-24T17:29:55;28.60;63.40
59098;DHT22;44883;52.760;6.610;2022-08-24T17:32:21;28.60;62.30
59098;DHT22;44883;52.760;6.610;2022-08-24T17:34:47;28.60;61.50
59098;DHT22;44883;52.760;6.610;2022-08-24T17:37:13;28.60;61.00
59098;DHT22;44883;52.760;6.610;2022-08-24T17:39:38;28.60;60.30
59098;DHT22;44883;52.760;6.610;2022-08-24T17:42:04;28.50;60.40
59098;DHT22;44883;52.760;6.610;2022-08-24T17:44:31;28.60;59.90
59098;DHT22;44883;52.760;6.610;2022-08-24T17:47:02;28.60;60.20
59098;DHT22;44883;52.760;6.610;2022-08-24T17:49:30;28.60;60.40
59098;DHT22;44883;52.760;6.610;2022-08-24T17:51:56;28.60;60.70
59098;DHT22;44883;52.760;6.610;2022-08-24T17:54:23;28.60;59.50
59098;DHT22;44883;52.760;6.610;2022-08-24T17:56:48;28.50;59.00
59098;DHT22;44883;52.760;6.610;2022-08-24T17:59:17;28.50;59.40
59098;DHT22;44883;52.760;6.610;2022-08-24T18:01:55;28.50;60.80
59098;DHT22;44883;52.760;6.610;2022-08-24T18:04:22;28.40;59.10
59098;DHT22;44883;52.760;6.610;2022-08-24T18:06:53;28.30;60.10
59098;DHT22;44883;52.760;6.610;2022-08-24T18:09:34;28.30;60.30
59098;DHT22;44883;52.760;6.610;2022-08-24T18:12:00;28.10;60.30
59098;DHT22;44883;52.760;6.610;2022-08-24T18:14:27;28.00;61.90
59098;DHT22;44883;52.760;6.610;2022-08-24T18:16:56;27.90;62.10
59098;DHT22;44883;52.760;6.610;2022-08-24T18:19:22;27.80;63.50
59098;DHT22;44883;52.760;6.610;2022-08-24T18:21:49;27.60;64.90
59098;DHT22;44883;52.760;6.610;2022-08-24T18:24:15;27.60;66.70
59098;DHT22;44883;52.760;6.610;2022-08-24T18:26:40;27.50;68.10
59098;DHT22;44883;52.760;6.610;2022-08-24T18:29:14;27.50;69.30
59098;DHT22;44883;52.760;6.610;2022-08-24T18:31:40;27.50;69.70
59098;DHT22;44883;52.760;6.610;2022-08-24T18:34:06;27.30;70.40
59098;DHT22;44883;52.760;6.610;2022-08-24T18:36:32;27.20;73.30
59098;DHT22;44883;52.760;6.610;2022-08-24T18:38:57;27.10;76.00
59098;DHT22;44883;52.760;6.610;2022-08-24T18:41:27;26.80;80.20
59098;DHT22;44883;52.760;6.610;2022-08-24T18:43:56;26.70;81.80
59098;DHT22;44883;52.760;6.610;2022-08-24T18:46:22;26.60;82.00
59098;DHT22;44883;52.760;6.610;2022-08-24T18:48:49;26.60;83.20
59098;DHT22;44883;52.760;6.610;2022-08-24T18:51:17;26.60;82.90
59098;DHT22;44883;52.760;6.610;2022-08-24T18:53:43;26.50;82.60
59098;DHT22;44883;52.760;6.610;2022-08-24T18:56:09;26.50;83.70
59098;DHT22;44883;52.760;6.610;2022-08-24T18:58:35;26.50;83.80
59098;DHT22;44883;52.760;6.610;2022-08-24T19:01:02;26.40;84.50